Time;durP1;ratioP1;P1;durP2;ratioP2;P2;SDS_P1;SDS_P2;PMS_P1;PMS_P2;Temp;Humidity;BMP_temperature;BMP_pressure;BME280_temperature;BME280_humidity;BME280_pressure;Samples;Min_cycle;Max_cycle;Signal;HPM_P1;HPM_P2
2023/12/15 00:01:42;;;;;;;1.60;1.30;;;4.90;98.20;;;;;;5046456;28;20477;-79
2023/12/15 00:04:09;;;;;;;1.60;1.20;;;4.90;98.20;;;;;;5058858;28;20466;-79
2023/12/15 00:06:35;;;;;;;1.70;1.47;;;4.90;98.20;;;;;;5042696;28;20489;-82
2023/12/15 00:09:02;;;;;;;1.70;1.40;;;4.90;98.20;;;;;;5047207;28;20464;-78
2023/12/15 00:11:29;;;;;;;1.70;1.40;;;4.90;98.20;;;;;;5049416;28;20477;-79
2023/12/15 00:13:57;;;;;;;1.63;1.30;;;4.90;98.20;;;;;;5055250;28;20558;-78
2023/12/15 00:16:24;;;;;;;1.60;1.30;;;4.90;98.20;;;;;;5048502;28;20784;-78
2023/12/15 00:18:51;;;;;;;1.63;1.30;;;4.90;98.20;;;;;;5062400;28;20471;-79
2023/12/15 00:21:17;;;;;;;1.60;1.30;;;4.90;98.20;;;;;;5041230;28;20471;-79
2023/12/15 00:23:44;;;;;;;1.70;1.30;;;4.90;98.20;;;;;;5041087;28;20553;-78
2023/12/15 00:26:12;;;;;;;1.70;1.40;;;5.00;98.20;;;;;;5046699;28;20489;-78
2023/12/15 00:28:38;;;;;;;1.70;1.50;;;5.00;98.20;;;;;;5064250;28;20466;-80
2023/12/15 00:31:07;;;;;;;1.70;1.40;;;5.00;98.20;;;;;;5043037;28;20850;-79
2023/12/15 00:33:33;;;;;;;1.67;1.30;;;5.00;98.20;;;;;;5051804;28;20469;-79
2023/12/15 00:36:00;;;;;;;1.70;1.40;;;5.00;98.20;;;;;;5035530;28;20899;-79
2023/12/15 00:38:27;;;;;;;1.60;1.30;;;5.00;98.20;;;;;;5053327;28;20465;-76
2023/12/15 00:40:54;;;;;;;1.63;1.30;;;5.10;98.20;;;;;;5037091;28;20463;-77
2023/12/15 00:43:20;;;;;;;1.63;1.40;;;5.10;98.20;;;;;;5056924;28;20473;-76
2023/12/15 00:45:47;;;;;;;1.60;1.30;;;5.10;98.20;;;;;;5037748;28;20462;-77
2023/12/15 00:48:15;;;;;;;1.70;1.40;;;5.10;98.20;;;;;;5057197;28;21009;-77
2023/12/15 00:50:42;;;;;;;1.67;1.40;;;5.10;98.20;;;;;;5043171;28;20466;-77
2023/12/15 00:53:09;;;;;;;2.30;2.10;;;5.10;98.20;;;;;;5036410;28;20478;-77
2023/12/15 00:55:36;;;;;;;1.63;1.30;;;5.20;98.20;;;;;;5048254;28;20563;-77
2023/12/15 00:58:02;;;;;;;1.70;1.30;;;5.20;98.20;;;;;;5047641;28;20504;-77
2023/12/15 01:00:29;;;;;;;1.67;1.30;;;5.20;98.20;;;;;;5048259;28;20645;-77
2023/12/15 01:02:56;;;;;;;1.67;1.30;;;5.20;98.20;;;;;;5050044;28;20972;-77
2023/12/15 01:05:24;;;;;;;1.60;1.30;;;5.20;98.20;;;;;;5048874;28;20465;-77
2023/12/15 01:07:51;;;;;;;1.63;1.30;;;5.20;98.20;;;;;;5050209;28;20503;-77
2023/12/15 01:10:17;;;;;;;2.20;1.97;;;5.20;98.20;;;;;;5040282;28;20475;-77
2023/12/15 01:12:44;;;;;;;1.67;1.40;;;5.30;98.20;;;;;;5035892;28;21096;-77
2023/12/15 01:15:11;;;;;;;1.70;1.40;;;5.30;98.20;;;;;;5049185;28;20466;-77
2023/12/15 01:17:38;;;;;;;1.63;1.30;;;5.30;98.20;;;;;;5052458;28;20500;-77
2023/12/15 01:20:06;;;;;;;1.63;1.30;;;5.30;98.20;;;;;;5043986;28;20460;-77
2023/12/15 01:22:34;;;;;;;1.70;1.40;;;5.30;98.20;;;;;;5044890;28;20473;-77
2023/12/15 01:25:00;;;;;;;1.70;1.40;;;5.30;98.20;;;;;;5045731;28;20462;-77
2023/12/15 01:27:28;;;;;;;1.63;1.30;;;5.40;98.20;;;;;;5042315;28;20481;-77
2023/12/15 01:29:54;;;;;;;1.63;1.30;;;5.40;98.20;;;;;;5044741;28;20625;-77
2023/12/15 01:32:21;;;;;;;1.60;1.40;;;5.40;98.20;;;;;;5047014;28;20476;-79
2023/12/15 01:34:48;;;;;;;1.70;1.30;;;5.40;98.20;;;;;;5046604;28;20478;-79
2023/12/15 01:37:15;;;;;;;1.60;1.30;;;5.40;98.20;;;;;;5053245;28;21177;-79
2023/12/15 01:39:43;;;;;;;1.70;1.30;;;5.40;98.20;;;;;;5052352;28;20811;-77
2023/12/15 01:42:10;;;;;;;1.63;1.30;;;5.40;98.20;;;;;;5043937;28;20485;-77
2023/12/15 01:44:37;;;;;;;1.70;1.50;;;5.40;98.20;;;;;;5043307;28;20620;-77
2023/12/15 01:47:04;;;;;;;1.67;1.30;;;5.40;98.20;;;;;;5043016;28;20481;-77
2023/12/15 01:49:30;;;;;;;1.63;1.30;;;5.40;98.20;;;;;;5050723;28;20466;-77
2023/12/15 01:51:57;;;;;;;1.63;1.30;;;5.50;98.20;;;;;;5033752;28;20487;-77
2023/12/15 01:54:24;;;;;;;1.63;1.30;;;5.50;98.20;;;;;;5044646;28;20481;-78
2023/12/15 01:56:52;;;;;;;1.63;1.30;;;5.50;98.20;;;;;;5037421;28;20489;-77
2023/12/15 01:59:18;;;;;;;1.60;1.27;;;5.50;98.20;;;;;;5049116;28;20493;-77
2023/12/15 02:01:45;;;;;;;1.60;1.30;;;5.50;98.20;;;;;;5030961;28;20566;-78
2023/12/15 02:04:12;;;;;;;1.60;1.30;;;5.50;98.20;;;;;;5038956;28;20204;-77
2023/12/15 02:06:39;;;;;;;1.63;1.30;;;5.60;98.20;;;;;;5034917;28;20552;-78
2023/12/15 02:09:05;;;;;;;1.70;1.40;;;5.60;98.20;;;;;;5048075;28;20489;-77
2023/12/15 02:11:32;;;;;;;1.87;1.67;;;5.60;98.20;;;;;;5036348;28;20478;-78
2023/12/15 02:14:00;;;;;;;1.63;1.30;;;5.60;98.20;;;;;;5050587;28;20481;-77
2023/12/15 02:16:27;;;;;;;1.60;1.30;;;5.60;98.20;;;;;;5036965;28;20483;-77
2023/12/15 02:18:54;;;;;;;2.40;2.20;;;5.70;98.20;;;;;;5054531;28;20463;-77
2023/12/15 02:21:20;;;;;;;1.60;1.23;;;5.70;98.20;;;;;;5039339;28;20473;-77
2023/12/15 02:23:48;;;;;;;1.67;1.40;;;5.70;98.20;;;;;;5056168;28;20462;-77
2023/12/15 02:26:15;;;;;;;1.60;1.20;;;5.80;98.20;;;;;;5034527;28;20492;-78
2023/12/15 02:28:42;;;;;;;1.60;1.30;;;5.80;98.20;;;;;;5043158;28;20495;-78
2023/12/15 02:31:09;;;;;;;1.60;1.20;;;5.80;98.20;;;;;;5033623;28;20561;-77
2023/12/15 02:33:36;;;;;;;1.63;1.30;;;5.80;98.20;;;;;;5043360;28;20470;-78
2023/12/15 02:36:03;;;;;;;1.60;1.30;;;5.80;98.20;;;;;;5025204;28;20494;-77
2023/12/15 02:38:30;;;;;;;1.70;1.30;;;5.80;98.20;;;;;;5044994;28;20490;-77
2023/12/15 02:40:58;;;;;;;1.60;1.27;;;5.90;98.20;;;;;;5038357;28;20465;-77
2023/12/15 02:43:25;;;;;;;1.60;1.30;;;5.90;98.20;;;;;;5062697;28;20466;-77
2023/12/15 02:45:52;;;;;;;1.70;1.40;;;5.90;98.20;;;;;;5036625;28;20511;-77
2023/12/15 02:48:19;;;;;;;1.60;1.30;;;5.90;98.20;;;;;;5051943;28;20489;-77
2023/12/15 02:50:45;;;;;;;1.70;1.40;;;5.90;98.20;;;;;;5044257;28;20454;-77
2023/12/15 02:53:14;;;;;;;1.60;1.20;;;5.90;98.20;;;;;;5028018;28;20474;-77
2023/12/15 02:55:41;;;;;;;1.60;1.30;;;5.90;98.20;;;;;;5034805;28;20492;-79
2023/12/15 02:58:09;;;;;;;1.70;1.30;;;5.90;98.20;;;;;;5057910;28;20470;-77
2023/12/15 03:00:36;;;;;;;1.70;1.50;;;6.00;98.20;;;;;;5054255;28;20461;-77
2023/12/15 03:03:02;;;;;;;1.60;1.33;;;6.00;98.20;;;;;;5048398;28;20579;-77
2023/12/15 03:05:29;;;;;;;1.60;1.20;;;6.00;98.20;;;;;;5039202;28;20953;-78
2023/12/15 03:07:56;;;;;;;1.63;1.30;;;6.00;98.20;;;;;;5042621;28;20478;-77
2023/12/15 03:10:23;;;;;;;1.67;1.30;;;6.00;98.20;;;;;;5035443;28;20958;-77
2023/12/15 03:12:49;;;;;;;1.60;1.30;;;6.00;98.20;;;;;;5041562;28;20925;-77
2023/12/15 03:15:18;;;;;;;1.60;1.30;;;6.00;98.20;;;;;;5049021;28;20466;-77
2023/12/15 03:17:45;;;;;;;1.70;1.40;;;6.00;98.20;;;;;;5041776;28;20465;-77
2023/12/15 03:20:12;;;;;;;1.67;1.30;;;6.00;98.20;;;;;;5038353;28;20459;-77
2023/12/15 03:22:39;;;;;;;1.67;1.30;;;6.00;98.20;;;;;;5043743;28;21055;-77
2023/12/15 03:25:07;;;;;;;1.70;1.40;;;6.00;98.20;;;;;;5038251;28;20466;-77
2023/12/15 03:27:33;;;;;;;1.60;1.30;;;6.00;98.20;;;;;;5034251;28;20624;-77
2023/12/15 03:30:01;;;;;;;1.67;1.30;;;6.00;98.20;;;;;;5040434;28;21012;-77
2023/12/15 03:32:29;;;;;;;1.60;1.30;;;6.10;98.20;;;;;;5031420;28;20934;-77
2023/12/15 03:34:56;;;;;;;1.60;1.20;;;6.10;98.20;;;;;;5038932;28;20753;-76
2023/12/15 03:37:23;;;;;;;1.60;1.27;;;6.10;98.20;;;;;;5043257;28;20493;-77
2023/12/15 03:39:50;;;;;;;1.60;1.30;;;6.10;98.20;;;;;;5040720;28;20466;-77
2023/12/15 03:42:17;;;;;;;1.60;1.20;;;6.10;98.20;;;;;;5025976;28;20521;-77
2023/12/15 03:44:44;;;;;;;1.70;1.30;;;6.10;98.20;;;;;;5034072;28;20466;-77
2023/12/15 03:47:10;;;;;;;1.70;1.40;;;6.10;98.20;;;;;;5016835;28;21055;-77
2023/12/15 03:49:39;;;;;;;1.63;1.23;;;6.10;98.20;;;;;;5044489;28;20486;-77
2023/12/15 03:52:06;;;;;;;1.70;1.40;;;6.20;98.20;;;;;;5029827;28;20519;-77
2023/12/15 03:54:33;;;;;;;1.63;1.20;;;6.20;98.20;;;;;;5041052;28;20511;-77
2023/12/15 03:57:00;;;;;;;1.70;1.40;;;6.20;98.20;;;;;;5047618;28;20488;-78
2023/12/15 03:59:27;;;;;;;1.70;1.30;;;6.20;98.20;;;;;;5072533;28;20995;-78
2023/12/15 04:01:54;;;;;;;3.20;2.90;;;6.20;98.20;;;;;;5055676;28;20889;-78
2023/12/15 04:04:21;;;;;;;1.70;1.50;;;6.20;98.20;;;;;;5076627;28;20564;-78
2023/12/15 04:06:49;;;;;;;15.07;13.93;;;6.20;98.20;;;;;;5062950;28;20843;-78
2023/12/15 04:09:16;;;;;;;1.60;1.30;;;6.20;98.20;;;;;;5071002;28;20486;-77
2023/12/15 04:11:43;;;;;;;1.60;1.30;;;6.20;98.20;;;;;;5050866;28;20474;-78
2023/12/15 04:14:10;;;;;;;1.63;1.20;;;6.20;98.20;;;;;;5054150;28;20550;-77
2023/12/15 04:16:40;;;;;;;1.70;1.30;;;6.20;98.20;;;;;;5050110;28;20534;-78
2023/12/15 04:19:07;;;;;;;1.70;1.40;;;6.20;98.20;;;;;;5062404;28;20832;-78
2023/12/15 04:21:34;;;;;;;1.63;1.30;;;6.20;98.20;;;;;;5041155;28;20886;-78
2023/12/15 04:24:02;;;;;;;1.70;1.57;;;6.20;98.20;;;;;;5047361;28;20466;-78
2023/12/15 04:26:29;;;;;;;1.60;1.20;;;6.20;98.20;;;;;;5039034;28;20486;-78
2023/12/15 04:28:56;;;;;;;1.60;1.30;;;6.20;98.20;;;;;;5044265;28;20514;-78
2023/12/15 04:31:23;;;;;;;1.60;1.30;;;6.20;98.20;;;;;;5043667;28;20584;-78
2023/12/15 04:33:50;;;;;;;1.67;1.30;;;6.20;98.20;;;;;;5055623;28;20999;-77
2023/12/15 04:36:19;;;;;;;4.80;4.40;;;6.20;98.20;;;;;;5043160;28;20481;-78
2023/12/15 04:38:46;;;;;;;1.60;1.30;;;6.20;98.20;;;;;;5059304;28;20461;-78
2023/12/15 04:41:22;;;;;;;1.60;1.20;;;6.20;98.20;;;;;;5045047;28;20481;-78
2023/12/15 04:43:49;;;;;;;1.60;1.30;;;6.20;98.20;;;;;;5058838;28;20472;-78
2023/12/15 04:46:23;;;;;;;1.67;1.30;;;6.20;98.20;;;;;;5034715;28;20711;-78
2023/12/15 04:48:50;;;;;;;1.70;1.40;;;6.20;98.20;;;;;;5045274;28;20577;-77
2023/12/15 04:51:17;;;;;;;1.60;1.30;;;6.20;98.20;;;;;;5037421;28;20549;-78
2023/12/15 04:53:45;;;;;;;1.67;1.20;;;6.20;98.20;;;;;;5041065;28;20478;-78
2023/12/15 04:56:12;;;;;;;1.67;1.30;;;6.20;98.20;;;;;;5038626;28;20501;-78
2023/12/15 04:58:41;;;;;;;1.60;1.30;;;6.20;98.20;;;;;;5044040;28;20467;-78
2023/12/15 05:01:12;;;;;;;1.60;1.30;;;6.30;98.20;;;;;;5038010;28;20678;-78
2023/12/15 05:03:40;;;;;;;1.70;1.30;;;6.30;98.20;;;;;;5041615;28;20463;-78
2023/12/15 05:06:08;;;;;;;1.60;1.30;;;6.30;98.20;;;;;;5039657;28;20497;-77
2023/12/15 05:08:35;;;;;;;1.60;1.30;;;6.30;98.20;;;;;;5044354;28;20799;-78
2023/12/15 05:11:01;;;;;;;1.70;1.30;;;6.30;98.20;;;;;;5039772;28;20470;-78
2023/12/15 05:13:28;;;;;;;1.63;1.30;;;6.30;98.20;;;;;;5037668;28;20539;-78
2023/12/15 05:15:56;;;;;;;1.70;1.30;;;6.30;98.20;;;;;;5039944;28;20473;-78
2023/12/15 05:18:23;;;;;;;1.70;1.40;;;6.30;98.20;;;;;;5063757;28;20459;-78
2023/12/15 05:20:50;;;;;;;1.60;1.30;;;6.30;98.20;;;;;;5039603;28;20464;-78
2023/12/15 05:23:16;;;;;;;2.93;2.33;;;6.30;98.20;;;;;;5043605;28;20458;-78
2023/12/15 05:25:43;;;;;;;1.67;1.23;;;6.30;98.20;;;;;;5046183;28;20467;-78
2023/12/15 05:28:10;;;;;;;1.70;1.40;;;6.30;98.20;;;;;;5054670;28;20478;-78
2023/12/15 05:30:37;;;;;;;1.67;1.30;;;6.30;98.20;;;;;;5048486;28;20459;-78
2023/12/15 05:33:06;;;;;;;1.70;1.40;;;6.40;98.20;;;;;;5044927;28;21097;-78
2023/12/15 05:35:33;;;;;;;1.67;1.30;;;6.30;98.20;;;;;;5047942;28;20505;-79
2023/12/15 05:38:02;;;;;;;1.67;1.30;;;6.40;98.20;;;;;;5047356;28;20490;-78
2023/12/15 05:40:29;;;;;;;1.60;1.30;;;6.40;98.20;;;;;;5047818;28;20466;-78
2023/12/15 05:42:55;;;;;;;1.70;1.50;;;6.40;98.20;;;;;;5036167;28;20698;-79
2023/12/15 05:45:22;;;;;;;1.60;1.30;;;6.40;98.20;;;;;;5051299;28;20480;-78
2023/12/15 05:47:49;;;;;;;1.70;1.40;;;6.40;98.20;;;;;;5034148;28;20494;-79
2023/12/15 05:50:17;;;;;;;1.60;1.30;;;6.40;98.20;;;;;;5048252;28;20474;-78
2023/12/15 05:52:45;;;;;;;1.60;1.20;;;6.40;98.20;;;;;;5035229;28;20482;-79
2023/12/15 05:55:12;;;;;;;1.60;1.20;;;6.40;98.20;;;;;;5052360;28;20655;-79
2023/12/15 05:57:38;;;;;;;1.63;1.30;;;6.40;98.20;;;;;;5037980;28;20498;-79
2023/12/15 06:00:06;;;;;;;1.67;1.30;;;6.40;98.20;;;;;;5051566;28;20458;-79
2023/12/15 06:02:33;;;;;;;1.60;1.27;;;6.40;98.20;;;;;;5036829;28;20551;-80
2023/12/15 06:05:00;;;;;;;1.70;1.30;;;6.50;98.20;;;;;;5049987;28;20528;-79
2023/12/15 06:07:31;;;;;;;1.70;1.30;;;6.50;98.20;;;;;;5037663;28;20499;-79
2023/12/15 06:09:58;;;;;;;1.67;1.37;;;6.50;98.20;;;;;;5050528;28;20485;-78
2023/12/15 06:12:24;;;;;;;1.63;1.30;;;6.50;98.20;;;;;;5037452;28;21043;-79
2023/12/15 06:14:51;;;;;;;1.60;1.20;;;6.50;98.20;;;;;;5053235;28;20527;-79
2023/12/15 06:17:20;;;;;;;1.60;1.20;;;6.50;98.20;;;;;;5059788;28;20478;-78
2023/12/15 06:19:46;;;;;;;1.60;1.30;;;6.50;98.20;;;;;;5064400;28;20549;-79
2023/12/15 06:22:16;;;;;;;1.60;1.30;;;6.50;98.20;;;;;;5057321;28;20516;-79
2023/12/15 06:24:44;;;;;;;1.63;1.30;;;6.50;98.20;;;;;;5066582;28;20553;-79
2023/12/15 06:27:11;;;;;;;1.70;1.30;;;6.60;98.20;;;;;;5061054;28;20524;-79
2023/12/15 06:29:42;;;;;;;1.70;1.30;;;6.60;98.20;;;;;;5067769;28;20482;-79
2023/12/15 06:32:10;;;;;;;1.67;1.33;;;6.60;98.20;;;;;;5055393;28;20473;-80
2023/12/15 06:34:37;;;;;;;1.60;1.30;;;6.60;98.20;;;;;;5066229;28;20463;-84
2023/12/15 06:37:04;;;;;;;1.60;1.30;;;6.70;98.20;;;;;;5054311;28;20588;-78
2023/12/15 06:39:34;;;;;;;1.60;1.20;;;6.70;98.20;;;;;;5052119;28;20574;-79
2023/12/15 06:42:02;;;;;;;1.60;1.30;;;6.70;98.20;;;;;;5050565;28;20477;-78
2023/12/15 06:44:30;;;;;;;1.63;1.30;;;6.70;98.20;;;;;;5057453;28;20466;-78
2023/12/15 06:46:56;;;;;;;1.60;1.20;;;6.70;98.20;;;;;;5047220;28;20489;-77
2023/12/15 06:49:30;;;;;;;1.60;1.30;;;6.70;98.20;;;;;;5061126;28;21017;-78
2023/12/15 06:51:57;;;;;;;1.60;1.30;;;6.80;98.20;;;;;;5396518;23;20483;-81
2023/12/15 06:54:24;;;;;;;1.60;1.20;;;6.80;98.20;;;;;;5100418;28;20465;-78
2023/12/15 06:56:51;;;;;;;1.67;1.30;;;6.80;98.20;;;;;;5634479;22;20491;-80
2023/12/15 06:59:19;;;;;;;1.60;1.20;;;6.80;98.20;;;;;;5089258;28;20480;-81
2023/12/15 07:01:46;;;;;;;1.60;1.30;;;6.80;98.20;;;;;;5074576;28;20568;-80
2023/12/15 07:04:13;;;;;;;1.63;1.20;;;6.90;98.20;;;;;;5086535;28;21972;-80
2023/12/15 07:06:40;;;;;;;1.63;1.27;;;6.90;98.20;;;;;;5076026;28;20492;-79
2023/12/15 07:09:09;;;;;;;1.60;1.27;;;6.90;98.20;;;;;;5085797;28;20854;-79
2023/12/15 07:11:39;;;;;;;1.63;1.20;;;6.90;98.20;;;;;;5077915;28;20488;-82
2023/12/15 07:14:06;;;;;;;1.60;1.30;;;6.90;98.20;;;;;;5088502;28;20919;-81
2023/12/15 07:16:34;;;;;;;1.60;1.20;;;7.00;98.20;;;;;;5077885;28;21101;-80
2023/12/15 07:19:01;;;;;;;1.70;1.50;;;7.00;98.20;;;;;;5088756;28;20843;-79
2023/12/15 07:21:28;;;;;;;1.70;1.40;;;7.00;98.20;;;;;;5075321;28;20467;-80
2023/12/15 07:23:55;;;;;;;1.70;1.30;;;7.00;98.20;;;;;;5092236;28;20469;-81
2023/12/15 07:26:22;;;;;;;1.70;1.40;;;7.10;98.20;;;;;;5081127;28;21032;-80
2023/12/15 07:28:48;;;;;;;1.60;1.20;;;7.10;98.20;;;;;;5096971;28;20499;-81
2023/12/15 07:31:15;;;;;;;1.60;1.20;;;7.10;98.20;;;;;;5077140;28;20515;-81
2023/12/15 07:33:43;;;;;;;1.60;1.20;;;7.10;98.20;;;;;;5097242;28;20488;-80
2023/12/15 07:36:11;;;;;;;1.60;1.20;;;7.20;98.20;;;;;;5072562;28;20488;-80
2023/12/15 07:38:38;;;;;;;1.60;1.30;;;7.20;98.20;;;;;;5084456;28;20849;-80
2023/12/15 07:41:06;;;;;;;1.70;1.40;;;7.20;98.20;;;;;;5071233;28;20470;-80
2023/12/15 07:43:33;;;;;;;1.67;1.30;;;7.20;98.20;;;;;;5088790;28;21050;-81
2023/12/15 07:46:00;;;;;;;1.63;1.20;;;7.20;98.20;;;;;;5070930;28;20497;-81
2023/12/15 07:48:27;;;;;;;1.70;1.40;;;7.30;98.20;;;;;;5079412;28;20482;-81
2023/12/15 07:50:57;;;;;;;1.60;1.30;;;7.30;98.20;;;;;;5072575;28;21112;-81
2023/12/15 07:53:24;;;;;;;1.70;1.30;;;7.30;98.20;;;;;;5093849;28;20849;-81
2023/12/15 07:55:50;;;;;;;1.63;1.30;;;7.30;98.20;;;;;;5076556;28;20868;-82
2023/12/15 07:58:19;;;;;;;1.60;1.20;;;7.30;98.20;;;;;;5092846;28;20839;-81
2023/12/15 08:00:46;;;;;;;1.60;1.30;;;7.30;98.20;;;;;;5085261;28;20971;-81
2023/12/15 08:03:13;;;;;;;1.60;1.20;;;7.40;98.20;;;;;;5061351;28;20548;-81
2023/12/15 08:05:39;;;;;;;1.60;1.23;;;7.40;98.20;;;;;;5077010;28;20500;-82
2023/12/15 08:08:08;;;;;;;1.70;1.23;;;7.40;98.20;;;;;;5062529;28;20485;-81
2023/12/15 08:10:34;;;;;;;1.60;1.20;;;7.40;98.20;;;;;;5078311;28;20894;-80
2023/12/15 08:13:01;;;;;;;1.60;1.20;;;7.40;98.20;;;;;;5076288;28;20472;-81
2023/12/15 08:15:28;;;;;;;1.60;1.20;;;7.40;98.20;;;;;;5083462;28;20474;-80
2023/12/15 08:17:55;;;;;;;1.63;1.27;;;7.50;98.20;;;;;;5079788;28;20488;-80
2023/12/15 08:20:23;;;;;;;1.70;1.30;;;7.50;98.20;;;;;;5079352;28;20458;-82
2023/12/15 08:22:49;;;;;;;1.63;1.20;;;7.50;98.20;;;;;;5069036;28;21064;-81
2023/12/15 08:25:18;;;;;;;1.70;1.40;;;7.50;98.20;;;;;;5085823;28;20499;-80
2023/12/15 08:27:44;;;;;;;1.70;1.30;;;7.50;98.20;;;;;;5063340;28;20485;-80
2023/12/15 08:30:12;;;;;;;1.63;1.20;;;7.60;98.20;;;;;;5084100;28;20880;-80
2023/12/15 08:32:39;;;;;;;1.67;1.30;;;7.60;98.20;;;;;;5074824;28;20476;-80
2023/12/15 08:35:06;;;;;;;1.63;1.27;;;7.60;98.20;;;;;;5081898;28;20465;-80
2023/12/15 08:37:32;;;;;;;1.60;1.20;;;7.60;98.20;;;;;;5067092;28;20487;-80
2023/12/15 08:39:59;;;;;;;1.60;1.20;;;7.60;98.20;;;;;;5089099;28;20463;-81
2023/12/15 08:42:27;;;;;;;1.60;1.20;;;7.60;98.20;;;;;;5090798;28;20482;-81
2023/12/15 08:44:54;;;;;;;1.60;1.20;;;7.60;98.20;;;;;;5098294;28;20457;-81
2023/12/15 08:47:21;;;;;;;1.60;1.20;;;7.70;98.20;;;;;;5088647;28;20988;-81
2023/12/15 08:49:48;;;;;;;1.67;1.30;;;7.70;98.20;;;;;;5095283;28;20495;-81
2023/12/15 08:52:15;;;;;;;1.63;1.20;;;7.70;98.20;;;;;;5078564;28;20488;-80
2023/12/15 08:54:42;;;;;;;1.63;1.20;;;7.70;98.20;;;;;;5094230;28;20552;-80
2023/12/15 08:57:09;;;;;;;1.63;1.30;;;7.70;98.20;;;;;;5078549;28;20994;-80
2023/12/15 08:59:38;;;;;;;1.70;1.30;;;7.80;98.20;;;;;;5089357;28;20470;-79
2023/12/15 09:02:06;;;;;;;1.60;1.20;;;7.80;98.20;;;;;;5069849;28;20540;-80
2023/12/15 09:04:33;;;;;;;1.67;1.20;;;7.80;98.20;;;;;;5079525;28;20873;-80
2023/12/15 09:06:59;;;;;;;1.67;1.20;;;7.90;98.20;;;;;;5073738;28;20519;-80
2023/12/15 09:09:26;;;;;;;1.63;1.20;;;7.90;98.20;;;;;;5078240;28;20494;-79
2023/12/15 09:11:53;;;;;;;1.60;1.20;;;7.90;98.20;;;;;;5064703;28;20491;-80
2023/12/15 09:14:21;;;;;;;1.70;1.50;;;8.00;98.20;;;;;;5079070;28;20515;-82
2023/12/15 09:16:49;;;;;;;1.60;1.30;;;8.00;98.20;;;;;;5074137;28;21052;-80
2023/12/15 09:19:16;;;;;;;1.60;1.20;;;8.00;98.20;;;;;;5085636;28;20460;-80
2023/12/15 09:21:43;;;;;;;1.60;1.20;;;8.00;98.20;;;;;;5069481;28;20477;-81
2023/12/15 09:24:10;;;;;;;1.60;1.20;;;8.00;98.20;;;;;;5078295;28;20461;-80
2023/12/15 09:26:38;;;;;;;1.60;1.20;;;8.00;98.20;;;;;;5072198;28;20487;-81
2023/12/15 09:29:05;;;;;;;1.60;1.20;;;8.10;98.20;;;;;;5089682;28;20670;-80
2023/12/15 09:31:32;;;;;;;1.67;1.30;;;8.10;98.20;;;;;;5077160;28;20534;-80
2023/12/15 09:34:00;;;;;;;1.70;1.20;;;8.10;98.20;;;;;;5081539;28;20466;-81
2023/12/15 09:36:27;;;;;;;1.70;1.30;;;8.10;98.20;;;;;;5074904;28;20481;-81
2023/12/15 09:38:54;;;;;;;1.63;1.20;;;8.10;98.20;;;;;;5088339;28;20547;-82
2023/12/15 09:41:20;;;;;;;1.60;1.20;;;8.10;98.20;;;;;;5072134;28;20551;-80
2023/12/15 09:43:48;;;;;;;1.60;1.20;;;8.10;98.20;;;;;;5072080;28;20489;-81
2023/12/15 09:46:15;;;;;;;1.60;1.20;;;8.20;98.20;;;;;;5068325;28;20488;-80
2023/12/15 09:48:42;;;;;;;1.60;1.20;;;8.10;98.20;;;;;;5078433;28;20461;-80
2023/12/15 09:51:16;;;;;;;1.63;1.30;;;8.20;98.20;;;;;;5071624;28;20496;-81
2023/12/15 09:53:46;;;;;;;1.60;1.20;;;8.20;98.20;;;;;;5078914;28;20465;-80
2023/12/15 09:56:13;;;;;;;1.60;1.20;;;8.20;98.20;;;;;;5073462;28;20487;-80
2023/12/15 09:58:41;;;;;;;1.63;1.20;;;8.20;98.20;;;;;;5093641;28;20749;-81
2023/12/15 10:01:08;;;;;;;1.60;1.20;;;8.20;98.20;;;;;;5067126;28;20467;-80
2023/12/15 10:03:34;;;;;;;1.60;1.20;;;8.20;98.20;;;;;;5083072;28;20707;-80
2023/12/15 10:06:01;;;;;;;1.60;1.20;;;8.30;98.20;;;;;;5075556;28;20475;-80
2023/12/15 10:08:40;;;;;;;1.60;1.20;;;8.30;98.20;;;;;;5096875;28;21040;-80
2023/12/15 10:11:07;;;;;;;1.60;1.20;;;8.30;98.20;;;;;;5075155;28;20524;-81
2023/12/15 10:13:34;;;;;;;1.83;1.50;;;8.30;98.20;;;;;;5088243;28;20527;-80
2023/12/15 10:16:01;;;;;;;1.70;1.30;;;8.40;98.20;;;;;;5078431;28;20477;-79
2023/12/15 10:18:28;;;;;;;2.63;2.07;;;8.40;98.20;;;;;;5086068;28;20495;-79
2023/12/15 10:20:55;;;;;;;2.03;1.83;;;8.40;98.20;;;;;;5082053;28;20460;-81
2023/12/15 10:23:27;;;;;;;1.60;1.20;;;8.50;98.20;;;;;;5100025;28;20533;-80
2023/12/15 10:25:55;;;;;;;1.60;1.20;;;8.50;98.20;;;;;;5085985;28;20460;-80
2023/12/15 10:28:22;;;;;;;1.70;1.27;;;8.60;98.20;;;;;;5091853;28;20492;-80
2023/12/15 10:30:51;;;;;;;1.60;1.10;;;8.60;98.20;;;;;;5079172;28;20519;-81
2023/12/15 10:36:30;;;;;;;1.60;1.20;;;8.70;98.20;;;;;;5018491;28;20502;-82
2023/12/15 10:38:57;;;;;;;2.93;2.73;;;8.70;98.20;;;;;;5025790;28;20465;-83
2023/12/15 10:41:30;;;;;;;1.60;1.13;;;8.70;98.20;;;;;;5019388;28;20494;-81
2023/12/15 10:43:59;;;;;;;1.63;1.23;;;8.70;98.20;;;;;;5067833;28;20811;-81
2023/12/15 10:46:38;;;;;;;1.70;1.23;;;8.80;98.20;;;;;;5094966;28;20475;-81
2023/12/15 10:49:16;;;;;;;1.63;1.20;;;8.80;98.20;;;;;;5095332;28;20477;-82
2023/12/15 10:51:43;;;;;;;1.60;1.20;;;8.80;98.20;;;;;;5091136;28;20488;-85
2023/12/15 10:54:13;;;;;;;1.63;1.20;;;8.80;98.20;;;;;;5104033;28;20499;-83
2023/12/15 10:56:41;;;;;;;1.60;1.20;;;8.80;98.20;;;;;;5108568;27;20488;-85
2023/12/15 10:59:13;;;;;;;1.67;1.20;;;8.80;98.20;;;;;;5112453;28;21235;-82
2023/12/15 11:01:46;;;;;;;1.70;1.27;;;8.90;98.20;;;;;;5091111;28;20481;-85
2023/12/15 11:04:23;;;;;;;1.70;1.30;;;8.90;98.20;;;;;;5105561;28;20514;-82
2023/12/15 11:07:01;;;;;;;1.60;1.20;;;8.90;98.20;;;;;;5097056;28;20974;-81
2023/12/15 11:09:38;;;;;;;1.67;1.30;;;9.00;98.20;;;;;;5109684;28;20469;-82
2023/12/15 11:15:22;;;;;;;1.60;1.20;;;9.00;98.20;;;;;;5115916;27;20550;-81
2023/12/15 11:17:59;;;;;;;1.60;1.10;;;9.00;98.20;;;;;;5082616;28;20480;-81
2023/12/15 11:21:06;;;;;;;1.60;1.10;;;9.10;98.20;;;;;;5089482;28;20474;-82
2023/12/15 11:24:13;;;;;;;1.60;1.10;;;9.10;98.20;;;;;;5060457;28;20488;-82
2023/12/15 11:26:50;;;;;;;1.70;1.30;;;9.10;98.20;;;;;;5076170;28;20488;-83
2023/12/15 11:29:44;;;;;;;2.03;1.83;;;9.20;98.20;;;;;;5088822;28;21661;-79
2023/12/15 11:32:35;;;;;;;1.60;1.20;;;9.20;98.20;;;;;;5081641;28;20920;-82
2023/12/15 11:38:52;;;;;;;1.60;1.20;;;9.30;98.20;;;;;;5079772;28;20503;-82
2023/12/15 11:41:27;;;;;;;1.60;1.10;;;9.30;98.20;;;;;;5083763;28;20466;-82
2023/12/15 11:44:07;;;;;;;1.60;1.20;;;9.40;98.20;;;;;;5090819;28;20548;-81
2023/12/15 11:46:49;;;;;;;1.60;1.10;;;9.40;98.20;;;;;;5084097;27;20476;-80
2023/12/15 11:49:32;;;;;;;1.70;1.20;;;9.40;98.20;;;;;;5096310;27;20467;-82
2023/12/15 11:52:10;;;;;;;1.60;1.20;;;9.50;98.20;;;;;;5079784;28;20487;-82
2023/12/15 11:54:58;;;;;;;1.63;1.13;;;9.50;98.20;;;;;;5094932;28;20857;-82
2023/12/15 11:57:26;;;;;;;1.60;1.20;;;9.50;98.20;;;;;;5076992;28;20485;-82
2023/12/15 12:00:19;;;;;;;1.67;1.20;;;9.50;98.20;;;;;;5096754;28;20472;-83
2023/12/15 12:02:55;;;;;;;1.60;1.10;;;9.50;98.20;;;;;;5102048;27;20550;-83
2023/12/15 12:05:35;;;;;;;1.60;1.20;;;9.50;98.20;;;;;;5103463;28;20589;-84
2023/12/15 12:08:05;;;;;;;1.70;1.20;;;9.50;98.20;;;;;;5094247;28;20483;-82
2023/12/15 12:10:45;;;;;;;2.27;2.07;;;9.50;98.20;;;;;;5103188;28;20477;-84
2023/12/15 12:16:02;;;;;;;1.60;1.10;;;9.50;98.20;;;;;;5092851;28;20459;-86
2023/12/15 12:21:16;;;;;;;1.63;1.30;;;9.50;98.20;;;;;;5089314;27;21077;-82
2023/12/15 12:23:43;;;;;;;1.60;1.10;;;9.50;98.20;;;;;;5116337;27;20485;-85
2023/12/15 12:26:15;;;;;;;1.60;1.20;;;9.50;98.20;;;;;;5092328;27;20505;-80
2023/12/15 12:28:47;;;;;;;1.63;1.20;;;9.50;98.20;;;;;;5113245;27;20481;-83
2023/12/15 12:34:24;;;;;;;1.60;1.10;;;9.50;98.20;;;;;;5250164;22;20489;-81
2023/12/15 12:36:54;;;;;;;1.60;1.10;;;9.50;98.20;;;;;;5039310;28;20486;-85
2023/12/15 12:39:23;;;;;;;1.60;1.10;;;9.60;98.20;;;;;;5053864;28;20490;-84
2023/12/15 12:42:38;;;;;;;1.63;1.10;;;9.60;98.20;;;;;;5052432;28;20477;-82
2023/12/15 12:45:19;;;;;;;1.60;1.20;;;9.60;98.20;;;;;;5072127;28;20461;-83
2023/12/15 12:47:49;;;;;;;1.60;1.10;;;9.70;98.20;;;;;;5060086;28;20556;-85
2023/12/15 12:50:21;;;;;;;1.60;1.10;;;9.70;98.20;;;;;;5073331;28;20466;-83
2023/12/15 12:52:52;;;;;;;1.60;1.20;;;9.80;98.20;;;;;;5059948;28;20589;-84
2023/12/15 12:55:24;;;;;;;1.70;1.30;;;9.80;98.20;;;;;;5069851;28;20462;-83
2023/12/15 12:57:53;;;;;;;1.60;1.10;;;9.80;98.20;;;;;;5058823;28;20531;-83
2023/12/15 13:00:32;;;;;;;1.67;1.20;;;9.80;98.20;;;;;;5074595;28;20465;-83
2023/12/15 13:03:06;;;;;;;1.60;1.10;;;9.80;98.20;;;;;;5060577;28;20505;-82
2023/12/15 13:05:35;;;;;;;1.70;1.20;;;9.80;98.20;;;;;;5074940;28;20476;-83
2023/12/15 13:08:02;;;;;;;1.60;1.07;;;9.90;98.20;;;;;;5063992;28;20481;-83
2023/12/15 13:10:29;;;;;;;1.70;1.27;;;9.90;98.20;;;;;;5081946;28;20512;-83
2023/12/15 13:12:59;;;;;;;1.63;1.20;;;9.90;98.20;;;;;;5063866;28;20563;-82
2023/12/15 13:15:32;;;;;;;1.60;1.10;;;9.90;98.20;;;;;;5071267;28;20466;-83
2023/12/15 13:18:02;;;;;;;1.60;1.10;;;9.90;98.20;;;;;;5064973;28;21046;-83
2023/12/15 13:20:29;;;;;;;1.60;1.10;;;9.90;98.20;;;;;;5070777;28;20523;-83
2023/12/15 13:22:59;;;;;;;1.70;1.30;;;9.90;98.20;;;;;;5062377;28;20473;-81
2023/12/15 13:25:28;;;;;;;1.60;1.10;;;9.90;98.20;;;;;;5058404;28;20492;-83